Terminal Aerodrome Forecast
Issued by NWS

Current Version | Previous Version | Text Only | Print | Product List | Glossary On
Versions: 1 2 3 4 5 6 7 8 9 10 11 12 13 14 15 16 17 18
714
FTUS41 KGYX 301120
TAFPSM
TAF
KPSM 301120Z 3012/0112 35009KT P6SM FEW250
     FM301700 09009KT P6SM BKN250
     FM302000 13008KT P6SM BKN050
     FM010700 14007KT P6SM OVC015
     FM011000 09005KT P6SM OVC006=

USA.gov is the U.S. government's official web portal to all federal, state and local government web resources and services.